Time;durP1;ratioP1;P1;durP2;ratioP2;P2;SDS_P1;SDS_P2;PMS_P1;PMS_P2;Temp;Humidity;BMP_temperature;BMP_pressure;BME280_temperature;BME280_humidity;BME280_pressure;Samples;Min_cycle;Max_cycle;Signal;HPM_P1;HPM_P2
2021/07/19 00:02:09;;;;;;;6.32;3.53;;;;;;;;;;4355733;32;20509;-80
2021/07/19 00:04:45;;;;;;;6.55;4.05;;;;;;;;;;4358673;33;20193;-81
2021/07/19 00:07:11;;;;;;;7.30;4.25;;;;;;;;;;4359447;32;20162;-80
2021/07/19 00:09:44;;;;;;;5.28;3.95;;;;;;;;;;4358887;32;20213;-81
2021/07/19 00:12:21;;;;;;;9.60;4.37;;;;;;;;;;4349126;32;20198;-81
2021/07/19 00:14:52;;;;;;;9.50;4.00;;;;;;;;;;4346679;33;20238;-81
2021/07/19 00:17:19;;;;;;;5.20;3.85;;;;;;;;;;4347550;32;20162;-81
2021/07/19 00:19:46;;;;;;;6.00;3.80;;;;;;;;;;4346552;32;20222;-81
2021/07/19 00:22:13;;;;;;;6.18;3.87;;;;;;;;;;4346570;32;20155;-80
2021/07/19 00:24:39;;;;;;;6.50;4.05;;;;;;;;;;4346566;33;20537;-81
2021/07/19 00:27:04;;;;;;;5.85;3.58;;;;;;;;;;4359824;33;20189;-80
2021/07/19 00:29:30;;;;;;;7.68;4.10;;;;;;;;;;4346413;33;20639;-80
2021/07/19 00:31:55;;;;;;;7.40;4.18;;;;;;;;;;4347107;33;20216;-81
2021/07/19 00:34:21;;;;;;;5.03;3.50;;;;;;;;;;4346364;32;20587;-80
2021/07/19 00:36:49;;;;;;;7.75;3.95;;;;;;;;;;4346567;33;20166;-80
2021/07/19 00:39:15;;;;;;;7.57;4.57;;;;;;;;;;4346873;32;20197;-80
2021/07/19 00:41:53;;;;;;;6.78;4.10;;;;;;;;;;4347791;32;20579;-81
2021/07/19 00:44:20;;;;;;;7.55;3.78;;;;;;;;;;4346869;33;20182;-81
2021/07/19 00:46:46;;;;;;;7.22;4.05;;;;;;;;;;4347311;32;20171;-81
2021/07/19 00:49:12;;;;;;;7.45;3.62;;;;;;;;;;4358738;32;20182;-80
2021/07/19 00:51:57;;;;;;;6.18;3.87;;;;;;;;;;4358341;32;20156;-81
2021/07/19 00:54:24;;;;;;;7.12;4.03;;;;;;;;;;4358879;32;20629;-80
2021/07/19 00:56:53;;;;;;;7.28;4.18;;;;;;;;;;4358468;32;20194;-81
2021/07/19 00:59:30;;;;;;;8.55;4.50;;;;;;;;;;4358392;32;20159;-80
2021/07/19 01:01:59;;;;;;;8.07;4.35;;;;;;;;;;4358364;32;20584;-81
2021/07/19 01:04:28;;;;;;;7.80;4.07;;;;;;;;;;4340756;32;20622;-81
2021/07/19 01:06:56;;;;;;;9.00;4.18;;;;;;;;;;4346258;32;20163;-80
2021/07/19 01:09:25;;;;;;;6.68;4.20;;;;;;;;;;4344741;32;20714;-81
2021/07/19 01:11:51;;;;;;;6.95;4.40;;;;;;;;;;4358264;32;20163;-81
2021/07/19 01:14:25;;;;;;;6.57;4.57;;;;;;;;;;4357235;32;20691;-81
2021/07/19 01:16:50;;;;;;;9.25;4.35;;;;;;;;;;4359337;32;20186;-81
2021/07/19 01:19:42;;;;;;;;;;;;;;;;;;;;;
2021/07/19 01:22:11;;;;;;;7.18;4.43;;;;;;;;;;4360236;33;20159;-81
2021/07/19 01:24:47;;;;;;;9.13;4.40;;;;;;;;;;4358432;32;20152;-81
2021/07/19 01:27:24;;;;;;;9.82;3.87;;;;;;;;;;4358494;32;20170;-81
2021/07/19 01:29:50;;;;;;;7.37;4.50;;;;;;;;;;4354201;32;20187;-81
2021/07/19 01:32:15;;;;;;;6.87;4.20;;;;;;;;;;4345789;33;20220;-81
2021/07/19 01:35:01;;;;;;;6.65;4.40;;;;;;;;;;4345908;33;20234;-81
2021/07/19 01:37:35;;;;;;;7.37;4.15;;;;;;;;;;4345646;32;20182;-81
2021/07/19 01:40:08;;;;;;;8.52;4.55;;;;;;;;;;4348205;32;20190;-81
2021/07/19 01:46:12;;;;;;;8.02;4.37;;;;;;;;;;4333255;32;20231;-81
2021/07/19 01:48:38;;;;;;;12.37;5.30;;;;;;;;;;4314328;32;20171;-80
2021/07/19 01:51:17;;;;;;;;;;;;;;;;;;;;;
2021/07/19 01:53:47;;;;;;;12.02;5.37;;;;;;;;;;4340639;32;20198;-81
2021/07/19 01:56:21;;;;;;;8.88;4.15;;;;;;;;;;4330768;33;20585;-81
2021/07/19 01:58:46;;;;;;;6.82;4.32;;;;;;;;;;4331536;32;20513;-81
2021/07/19 02:01:12;;;;;;;6.95;4.25;;;;;;;;;;4330470;33;20186;-81
2021/07/19 02:03:38;;;;;;;8.18;5.10;;;;;;;;;;4330856;33;20175;-81
2021/07/19 02:06:07;;;;;;;10.07;5.40;;;;;;;;;;4330619;33;20209;-80
2021/07/19 02:08:33;;;;;;;9.80;4.50;;;;;;;;;;4330528;33;20163;-81
2021/07/19 02:11:07;;;;;;;9.20;4.75;;;;;;;;;;4318278;33;20595;-80
2021/07/19 02:13:44;;;;;;;6.90;4.18;;;;;;;;;;4345318;32;20139;-81
2021/07/19 02:16:16;;;;;;;9.20;4.75;;;;;;;;;;4330920;32;20243;-81
2021/07/19 02:18:45;;;;;;;6.47;4.82;;;;;;;;;;4331344;33;20155;-81
2021/07/19 02:21:10;;;;;;;9.18;5.00;;;;;;;;;;4330460;33;20612;-81
2021/07/19 02:24:03;;;;;;;6.78;4.62;;;;;;;;;;4328799;33;20186;-81
2021/07/19 02:26:39;;;;;;;10.57;4.97;;;;;;;;;;4328076;32;20214;-81
2021/07/19 02:29:07;;;;;;;8.10;4.60;;;;;;;;;;4316519;33;20626;-81
2021/07/19 02:31:36;;;;;;;10.40;5.40;;;;;;;;;;4315522;33;20245;-81
2021/07/19 02:34:05;;;;;;;8.05;4.85;;;;;;;;;;4387140;32;20170;-82
2021/07/19 02:36:39;;;;;;;7.43;4.65;;;;;;;;;;4332988;32;20176;-81
2021/07/19 02:39:05;;;;;;;9.68;5.07;;;;;;;;;;4330275;33;20567;-81
2021/07/19 02:41:31;;;;;;;9.95;5.65;;;;;;;;;;4330110;33;20159;-81
2021/07/19 02:44:01;;;;;;;9.88;4.93;;;;;;;;;;4330431;33;20167;-81
2021/07/19 02:46:27;;;;;;;13.43;5.55;;;;;;;;;;4330154;32;20159;-81
2021/07/19 02:48:53;;;;;;;9.77;4.72;;;;;;;;;;4339536;32;20193;-81
2021/07/19 02:54:07;;;;;;;6.15;4.80;;;;;;;;;;4329856;32;20594;-81
2021/07/19 02:56:39;;;;;;;14.05;5.60;;;;;;;;;;4406475;32;20162;-81
2021/07/19 02:59:14;;;;;;;9.45;5.20;;;;;;;;;;4378595;32;20167;-81
2021/07/19 03:01:39;;;;;;;8.20;5.70;;;;;;;;;;4330470;32;20658;-81
2021/07/19 03:04:15;;;;;;;9.65;6.20;;;;;;;;;;4330099;32;20186;-81
2021/07/19 03:07:06;;;;;;;9.15;5.25;;;;;;;;;;4330668;32;20178;-81
2021/07/19 03:09:40;;;;;;;8.70;5.80;;;;;;;;;;4355230;32;20163;-81
2021/07/19 03:12:06;;;;;;;10.85;5.40;;;;;;;;;;4331173;33;20576;-82
2021/07/19 03:14:39;;;;;;;8.60;5.72;;;;;;;;;;4329818;33;20175;-82
2021/07/19 03:17:06;;;;;;;8.45;5.00;;;;;;;;;;4329656;33;20164;-82
2021/07/19 03:19:56;;;;;;;11.98;4.97;;;;;;;;;;4330620;33;20151;-82
2021/07/19 03:22:26;;;;;;;9.90;5.60;;;;;;;;;;4315105;32;20242;-81
2021/07/19 03:28:04;;;;;;;13.02;6.70;;;;;;;;;;4373133;32;20170;-82
2021/07/19 03:30:48;;;;;;;10.32;5.75;;;;;;;;;;4359915;32;20249;-82
2021/07/19 03:33:17;;;;;;;10.52;5.78;;;;;;;;;;4360791;32;20182;-82
2021/07/19 03:36:53;;;;;;;;;;;;;;;;;;;;;
2021/07/19 03:38:57;;;;;;;;;;;;;;;;;;;;;
2021/07/19 03:41:43;;;;;;;11.77;6.03;;;;;;;;;;4423880;32;20138;-82
2021/07/19 03:44:14;;;;;;;13.20;6.93;;;;;;;;;;4410170;32;20154;-81
2021/07/19 03:46:59;;;;;;;;;;;;;;;;;;;;;
2021/07/19 03:49:25;;;;;;;10.27;6.35;;;;;;;;;;4370600;32;20162;-82
2021/07/19 03:51:50;;;;;;;10.80;6.28;;;;;;;;;;4360717;33;20150;-81
2021/07/19 03:54:21;;;;;;;12.63;6.95;;;;;;;;;;4359589;32;20579;-81
2021/07/19 03:56:47;;;;;;;9.68;6.32;;;;;;;;;;4348519;32;20163;-82
2021/07/19 03:59:13;;;;;;;12.32;7.18;;;;;;;;;;4344702;32;20533;-81
2021/07/19 04:01:39;;;;;;;13.15;6.80;;;;;;;;;;4347194;32;20155;-81
2021/07/19 04:04:09;;;;;;;10.88;6.60;;;;;;;;;;4347316;32;20167;-82
2021/07/19 04:06:45;;;;;;;11.68;6.62;;;;;;;;;;4346690;33;20164;-82
2021/07/19 04:09:22;;;;;;;10.93;7.00;;;;;;;;;;4347460;32;20255;-82
2021/07/19 04:11:51;;;;;;;16.02;7.45;;;;;;;;;;4346711;32;20511;-81
2021/07/19 04:14:20;;;;;;;10.38;6.20;;;;;;;;;;4346470;32;20167;-82
2021/07/19 04:16:45;;;;;;;15.38;7.35;;;;;;;;;;4346785;32;20156;-82
2021/07/19 04:19:14;;;;;;;12.57;7.15;;;;;;;;;;4347001;32;20167;-82
2021/07/19 04:21:43;;;;;;;11.27;6.93;;;;;;;;;;4347350;32;20182;-82
2021/07/19 04:24:10;;;;;;;11.25;6.12;;;;;;;;;;4346842;33;20159;-81
2021/07/19 04:26:41;;;;;;;10.68;6.93;;;;;;;;;;4347131;32;20213;-82
2021/07/19 04:29:35;;;;;;;10.95;6.82;;;;;;;;;;4347174;33;20163;-82
2021/07/19 04:32:03;;;;;;;11.70;6.72;;;;;;;;;;4346472;33;20220;-82
2021/07/19 04:34:33;;;;;;;12.20;6.45;;;;;;;;;;4347003;33;20222;-81
2021/07/19 04:37:03;;;;;;;13.13;6.70;;;;;;;;;;4372138;32;20163;-81
2021/07/19 04:39:29;;;;;;;11.12;6.30;;;;;;;;;;4346850;33;20155;-82
2021/07/19 04:41:57;;;;;;;13.40;6.22;;;;;;;;;;4346917;32;20147;-81
2021/07/19 04:44:26;;;;;;;10.40;6.57;;;;;;;;;;4346133;33;20607;-81
2021/07/19 04:47:11;;;;;;;;;;;;;;;;;;;;;
2021/07/19 04:49:37;;;;;;;10.18;6.22;;;;;;;;;;4359572;32;20193;-82
2021/07/19 04:52:03;;;;;;;10.10;5.85;;;;;;;;;;4411031;32;20235;-82
2021/07/19 04:54:32;;;;;;;10.88;6.40;;;;;;;;;;4410650;32;20170;-82
2021/07/19 04:57:05;;;;;;;9.02;5.53;;;;;;;;;;4416075;32;20207;-82
2021/07/19 04:59:35;;;;;;;11.82;5.82;;;;;;;;;;4405333;32;20209;-82
2021/07/19 05:02:00;;;;;;;11.10;6.07;;;;;;;;;;4409036;32;20193;-82
2021/07/19 05:04:39;;;;;;;13.32;6.55;;;;;;;;;;4408809;32;20226;-82
2021/07/19 05:07:11;;;;;;;9.73;5.85;;;;;;;;;;4407917;32;20165;-83
2021/07/19 05:09:40;;;;;;;11.68;6.15;;;;;;;;;;4408559;32;20174;-83
2021/07/19 05:12:13;;;;;;;12.63;5.80;;;;;;;;;;4408717;32;20173;-82
2021/07/19 05:14:42;;;;;;;11.85;6.62;;;;;;;;;;4408438;32;20177;-83
2021/07/19 05:17:09;;;;;;;11.43;6.00;;;;;;;;;;4408494;32;20162;-84
2021/07/19 05:19:43;;;;;;;11.52;6.55;;;;;;;;;;4408566;32;20161;-82
2021/07/19 05:22:14;;;;;;;11.93;6.78;;;;;;;;;;4408201;32;20185;-82
2021/07/19 05:24:40;;;;;;;13.32;6.45;;;;;;;;;;4408303;32;20241;-81
2021/07/19 05:27:06;;;;;;;11.88;6.37;;;;;;;;;;4407919;32;20158;-81
2021/07/19 05:29:36;;;;;;;9.30;5.95;;;;;;;;;;4409005;32;20231;-82
2021/07/19 05:32:02;;;;;;;13.73;7.20;;;;;;;;;;4407813;32;20161;-81
2021/07/19 05:34:29;;;;;;;11.82;6.15;;;;;;;;;;4408259;32;20189;-81
2021/07/19 05:37:00;;;;;;;8.77;5.90;;;;;;;;;;4416716;32;20169;-81
2021/07/19 05:39:27;;;;;;;9.70;6.03;;;;;;;;;;4356847;32;20158;-81
2021/07/19 05:41:52;;;;;;;11.88;6.07;;;;;;;;;;4371298;32;20667;-82
2021/07/19 05:44:18;;;;;;;14.02;6.75;;;;;;;;;;4408116;32;20162;-81
2021/07/19 05:46:43;;;;;;;16.02;6.78;;;;;;;;;;4407273;32;20227;-81
2021/07/19 05:49:09;;;;;;;10.50;6.20;;;;;;;;;;4385002;32;20191;-82
2021/07/19 05:51:41;;;;;;;11.70;6.03;;;;;;;;;;4346013;33;20567;-82
2021/07/19 05:54:12;;;;;;;13.90;6.53;;;;;;;;;;4339815;33;20183;-81
2021/07/19 05:56:38;;;;;;;10.80;5.93;;;;;;;;;;4331161;32;20167;-82
2021/07/19 05:59:06;;;;;;;12.55;6.50;;;;;;;;;;4330847;33;20164;-82
2021/07/19 06:01:38;;;;;;;12.68;6.30;;;;;;;;;;4330451;33;20235;-83
2021/07/19 06:04:03;;;;;;;11.10;6.00;;;;;;;;;;4331752;32;20159;-82
2021/07/19 06:06:30;;;;;;;13.48;5.95;;;;;;;;;;4331172;32;20223;-84
2021/07/19 06:09:04;;;;;;;13.20;6.35;;;;;;;;;;4331373;32;20164;-84
2021/07/19 06:11:32;;;;;;;11.30;6.25;;;;;;;;;;4331522;32;20179;-82
2021/07/19 06:14:11;;;;;;;11.95;8.00;;;;;;;;;;4344639;33;20174;-82
2021/07/19 06:16:38;;;;;;;10.43;6.22;;;;;;;;;;4331049;32;20175;-83
2021/07/19 06:19:05;;;;;;;15.35;6.25;;;;;;;;;;4330473;33;20190;-82
2021/07/19 06:21:30;;;;;;;9.85;5.53;;;;;;;;;;4330896;32;20267;-81
2021/07/19 06:24:11;;;;;;;9.95;5.90;;;;;;;;;;4335635;32;20155;-82
2021/07/19 06:26:38;;;;;;;11.43;5.78;;;;;;;;;;4346490;32;20206;-81
2021/07/19 06:29:04;;;;;;;7.25;5.20;;;;;;;;;;4346677;32;20178;-81
2021/07/19 06:31:29;;;;;;;10.60;5.85;;;;;;;;;;4346843;32;20201;-82
2021/07/19 06:33:55;;;;;;;9.80;5.85;;;;;;;;;;4347188;32;20220;-82
2021/07/19 06:36:24;;;;;;;11.00;6.12;;;;;;;;;;4346477;32;20528;-82
2021/07/19 06:38:52;;;;;;;10.38;5.25;;;;;;;;;;4346199;32;20155;-82
2021/07/19 06:41:17;;;;;;;10.50;5.70;;;;;;;;;;4345784;33;20230;-80
2021/07/19 06:43:43;;;;;;;10.63;5.03;;;;;;;;;;4345981;32;20164;-80
2021/07/19 06:46:11;;;;;;;13.20;5.57;;;;;;;;;;4345453;32;20155;-80
2021/07/19 06:48:37;;;;;;;9.10;5.78;;;;;;;;;;4344988;32;20229;-81
2021/07/19 06:51:02;;;;;;;9.15;5.40;;;;;;;;;;4344944;33;20302;-80
2021/07/19 06:54:21;;;;;;;8.20;4.55;;;;;;;;;;4345040;33;20182;-81
2021/07/19 06:56:27;;;;;;;9.90;5.68;;;;;;;;;;4354695;33;20472;-81
2021/07/19 06:59:20;;;;;;;;;;;;;;;;;;;;;
2021/07/19 07:02:12;;;;;;;10.70;4.80;;;;;;;;;;4359352;33;20457;-80
2021/07/19 07:04:55;;;;;;;6.45;4.35;;;;;;;;;;4345745;32;20163;-81
2021/07/19 07:07:43;;;;;;;7.47;4.75;;;;;;;;;;4345107;33;20198;-81
2021/07/19 07:10:07;;;;;;;5.90;4.28;;;;;;;;;;4358676;33;20163;-82
2021/07/19 07:12:34;;;;;;;11.75;5.45;;;;;;;;;;4346044;33;20215;-82
2021/07/19 07:15:00;;;;;;;9.35;4.95;;;;;;;;;;4346123;33;20211;-81
2021/07/19 07:17:28;;;;;;;8.35;4.53;;;;;;;;;;4359108;33;20514;-81
2021/07/19 07:20:09;;;;;;;7.10;4.30;;;;;;;;;;4346197;33;20178;-82
2021/07/19 07:22:56;;;;;;;8.38;4.90;;;;;;;;;;4348910;33;20135;-81
2021/07/19 07:25:21;;;;;;;8.45;5.00;;;;;;;;;;4346162;33;20210;-81
2021/07/19 07:27:59;;;;;;;7.40;4.78;;;;;;;;;;4345717;33;20484;-81
2021/07/19 07:30:31;;;;;;;8.60;4.62;;;;;;;;;;4360067;33;20134;-82
2021/07/19 07:33:00;;;;;;;7.25;4.55;;;;;;;;;;4345341;33;20192;-81
2021/07/19 07:35:26;;;;;;;8.48;4.57;;;;;;;;;;4345355;33;20194;-82
2021/07/19 07:37:51;;;;;;;8.43;3.95;;;;;;;;;;4345232;33;20160;-81
2021/07/19 07:40:19;;;;;;;8.98;4.93;;;;;;;;;;4345001;33;20486;-81
2021/07/19 07:42:44;;;;;;;7.45;4.30;;;;;;;;;;4344479;33;20189;-81
2021/07/19 07:45:22;;;;;;;7.20;4.80;;;;;;;;;;4344654;33;20528;-81
2021/07/19 07:47:47;;;;;;;5.72;4.03;;;;;;;;;;4344424;33;20155;-82
2021/07/19 07:50:13;;;;;;;7.07;4.57;;;;;;;;;;4352383;32;20224;-82
2021/07/19 07:52:39;;;;;;;7.50;4.70;;;;;;;;;;4357847;33;20453;-82
2021/07/19 07:55:05;;;;;;;6.03;4.07;;;;;;;;;;4357001;33;20167;-83
2021/07/19 07:57:55;;;;;;;8.57;4.43;;;;;;;;;;4356637;33;20597;-81
2021/07/19 08:00:21;;;;;;;7.07;4.47;;;;;;;;;;4353128;32;20202;-81
2021/07/19 08:02:46;;;;;;;7.15;4.28;;;;;;;;;;4357208;33;20180;-81
2021/07/19 08:08:21;;;;;;;7.68;4.82;;;;;;;;;;4358149;33;20150;-81
2021/07/19 08:13:51;;;;;;;7.90;3.97;;;;;;;;;;4357943;33;20228;-81
2021/07/19 08:16:19;;;;;;;7.45;4.50;;;;;;;;;;4356170;33;20179;-81
2021/07/19 08:18:45;;;;;;;7.53;4.57;;;;;;;;;;4356856;33;20152;-82
2021/07/19 08:21:11;;;;;;;7.10;4.45;;;;;;;;;;4356280;33;20194;-82
2021/07/19 08:23:37;;;;;;;7.75;4.22;;;;;;;;;;4356738;32;20261;-81
2021/07/19 08:26:03;;;;;;;6.03;4.10;;;;;;;;;;4358776;33;20159;-81
2021/07/19 08:31:17;;;;;;;6.85;4.60;;;;;;;;;;4329462;32;20640;-81
2021/07/19 08:33:42;;;;;;;6.62;4.60;;;;;;;;;;4358844;33;20167;-82
2021/07/19 08:36:16;;;;;;;7.75;4.50;;;;;;;;;;4358857;33;20175;-82
2021/07/19 08:39:04;;;;;;;7.57;4.93;;;;;;;;;;4359271;33;20583;-81
2021/07/19 08:41:57;;;;;;;6.65;4.65;;;;;;;;;;4359988;33;20232;-82
2021/07/19 08:44:22;;;;;;;8.50;5.03;;;;;;;;;;4347530;33;20208;-80
2021/07/19 08:46:56;;;;;;;9.40;5.62;;;;;;;;;;4358732;33;20580;-82
2021/07/19 08:52:05;;;;;;;8.32;5.40;;;;;;;;;;4357189;33;20155;-82
2021/07/19 08:54:35;;;;;;;7.18;5.57;;;;;;;;;;4331381;32;20267;-81
2021/07/19 08:57:13;;;;;;;10.13;6.22;;;;;;;;;;4331498;32;20189;-80
2021/07/19 08:59:39;;;;;;;10.27;5.55;;;;;;;;;;4332015;32;20167;-81
2021/07/19 09:02:05;;;;;;;8.55;5.82;;;;;;;;;;4331797;32;20186;-80
2021/07/19 09:04:42;;;;;;;8.07;5.40;;;;;;;;;;4331537;32;20194;-81
2021/07/19 09:07:07;;;;;;;9.07;5.62;;;;;;;;;;4331368;32;20152;-80
2021/07/19 09:09:42;;;;;;;11.93;6.35;;;;;;;;;;4331813;32;20163;-80
2021/07/19 09:12:27;;;;;;;11.12;6.57;;;;;;;;;;4331320;33;20579;-82
2021/07/19 09:14:56;;;;;;;8.90;5.90;;;;;;;;;;4331387;32;20257;-81
2021/07/19 09:17:30;;;;;;;11.23;6.07;;;;;;;;;;4331758;32;20187;-80
2021/07/19 09:19:59;;;;;;;8.13;5.85;;;;;;;;;;4331336;32;20190;-80
2021/07/19 09:22:27;;;;;;;7.97;5.62;;;;;;;;;;4331693;32;20618;-82
2021/07/19 09:25:18;;;;;;;8.98;5.62;;;;;;;;;;4331633;32;20178;-80
2021/07/19 09:28:12;;;;;;;8.98;5.95;;;;;;;;;;4320064;32;20164;-82
2021/07/19 09:33:55;;;;;;;9.38;5.45;;;;;;;;;;4340045;32;20218;-81
2021/07/19 09:36:49;;;;;;;10.35;6.75;;;;;;;;;;4344465;33;20123;-81
2021/07/19 09:39:17;;;;;;;8.45;5.43;;;;;;;;;;4311318;32;20194;-82
2021/07/19 09:42:11;;;;;;;;;;;;;;;;;;;;;
2021/07/19 09:45:01;;;;;;;8.35;5.60;;;;;;;;;;4343659;32;20148;-81
2021/07/19 09:47:49;;;;;;;8.80;5.80;;;;;;;;;;4332154;32;20178;-81
2021/07/19 09:50:16;;;;;;;8.50;5.95;;;;;;;;;;4340489;32;20180;-81
2021/07/19 09:53:00;;;;;;;8.23;5.50;;;;;;;;;;4324743;32;20199;-81
2021/07/19 09:56:06;;;;;;;11.70;5.93;;;;;;;;;;4331532;33;20156;-81
2021/07/19 09:58:33;;;;;;;9.07;5.78;;;;;;;;;;4330593;33;20167;-81
2021/07/19 10:01:03;;;;;;;9.80;5.70;;;;;;;;;;4331171;32;20212;-81
2021/07/19 10:06:34;;;;;;;7.00;5.28;;;;;;;;;;4343656;33;20151;-79
2021/07/19 10:09:20;;;;;;;10.18;6.25;;;;;;;;;;4343774;32;20181;-80
2021/07/19 10:11:58;;;;;;;11.93;5.80;;;;;;;;;;4345043;33;20124;-81
2021/07/19 10:14:25;;;;;;;10.20;5.60;;;;;;;;;;4330449;33;20167;-81
2021/07/19 10:16:51;;;;;;;6.97;4.85;;;;;;;;;;4330686;32;20234;-82
2021/07/19 10:19:16;;;;;;;13.35;5.32;;;;;;;;;;4330674;32;20197;-81
2021/07/19 10:21:42;;;;;;;7.55;4.80;;;;;;;;;;4330559;32;20611;-81
2021/07/19 10:24:15;;;;;;;9.75;5.20;;;;;;;;;;4330749;32;20635;-81
2021/07/19 10:26:50;;;;;;;8.30;4.95;;;;;;;;;;4331040;32;20164;-82
2021/07/19 10:29:15;;;;;;;8.50;5.20;;;;;;;;;;4331306;32;20162;-81
2021/07/19 10:31:47;;;;;;;10.15;4.87;;;;;;;;;;4330332;32;20769;-83
2021/07/19 10:34:16;;;;;;;8.80;5.57;;;;;;;;;;4330584;32;20611;-81
2021/07/19 10:37:09;;;;;;;8.30;5.00;;;;;;;;;;4330404;32;20229;-81
2021/07/19 10:39:38;;;;;;;9.25;5.20;;;;;;;;;;4333937;32;20155;-81
2021/07/19 10:42:07;;;;;;;11.60;5.53;;;;;;;;;;4330462;32;20232;-80
2021/07/19 10:44:34;;;;;;;9.13;5.35;;;;;;;;;;4371463;32;20182;-80
2021/07/19 10:47:11;;;;;;;10.57;6.32;;;;;;;;;;4343906;32;20575;-80
2021/07/19 10:52:45;;;;;;;7.75;5.20;;;;;;;;;;4371651;32;20157;-81
2021/07/19 10:55:23;;;;;;;7.20;4.70;;;;;;;;;;4337267;33;20214;-81
2021/07/19 10:58:08;;;;;;;7.20;5.45;;;;;;;;;;4319467;33;20187;-82
2021/07/19 11:00:45;;;;;;;8.23;5.10;;;;;;;;;;4390270;32;20607;-82
2021/07/19 11:03:20;;;;;;;8.18;5.05;;;;;;;;;;4315319;33;20522;-81
2021/07/19 11:06:02;;;;;;;8.63;5.22;;;;;;;;;;4315740;33;20159;-81
2021/07/19 11:08:37;;;;;;;8.50;4.80;;;;;;;;;;4316403;33;20604;-80
2021/07/19 11:11:02;;;;;;;8.00;5.30;;;;;;;;;;4321400;32;20232;-83
2021/07/19 11:13:31;;;;;;;8.27;5.18;;;;;;;;;;4315255;33;20156;-81
2021/07/19 11:19:23;;;;;;;;;;;;;;;;;;;;;
2021/07/19 11:22:13;;;;;;;10.48;5.82;;;;;;;;;;4328975;32;20155;-81
2021/07/19 11:24:50;;;;;;;8.40;5.50;;;;;;;;;;4320199;32;20516;-79
2021/07/19 11:27:35;;;;;;;7.45;4.82;;;;;;;;;;4315142;33;20674;-82
2021/07/19 11:30:06;;;;;;;7.78;4.97;;;;;;;;;;4315510;33;20176;-80
2021/07/19 11:32:33;;;;;;;8.23;4.45;;;;;;;;;;4316021;33;20662;-80
2021/07/19 11:35:14;;;;;;;7.57;4.62;;;;;;;;;;4329532;33;20197;-80
2021/07/19 11:37:44;;;;;;;13.88;7.05;;;;;;;;;;4330075;33;20480;-81
2021/07/19 11:40:35;;;;;;;14.07;5.20;;;;;;;;;;4330252;33;20182;-81
2021/07/19 11:43:25;;;;;;;8.57;4.97;;;;;;;;;;4331267;33;20181;-80
2021/07/19 11:46:02;;;;;;;;;;;;;;;;;;;;;
2021/07/19 11:48:56;;;;;;;6.72;4.45;;;;;;;;;;4328832;32;20152;-81
2021/07/19 11:51:23;;;;;;;8.77;5.62;;;;;;;;;;4325933;32;20219;-81
2021/07/19 11:53:49;;;;;;;8.73;5.50;;;;;;;;;;4327040;33;20542;-80
2021/07/19 11:56:15;;;;;;;8.40;5.10;;;;;;;;;;4327328;33;20160;-83
2021/07/19 11:58:49;;;;;;;8.25;4.93;;;;;;;;;;4328021;33;20195;-81
2021/07/19 12:01:27;;;;;;;6.95;4.95;;;;;;;;;;4329128;33;20712;-81
2021/07/19 12:04:02;;;;;;;8.15;5.37;;;;;;;;;;4329937;33;20174;-81
2021/07/19 12:06:52;;;;;;;8.77;4.85;;;;;;;;;;4331368;33;20683;-80
2021/07/19 12:09:20;;;;;;;7.82;5.05;;;;;;;;;;4330232;33;20189;-81
2021/07/19 12:12:16;;;;;;;6.30;4.45;;;;;;;;;;4329466;33;20190;-81
2021/07/19 12:18:30;;;;;;;7.87;5.07;;;;;;;;;;4299726;33;20574;-81
2021/07/19 12:20:57;;;;;;;11.07;5.15;;;;;;;;;;4252834;33;20528;-80
2021/07/19 12:23:23;;;;;;;8.13;4.50;;;;;;;;;;4287589;33;20230;-80
2021/07/19 12:26:13;;;;;;;8.85;5.28;;;;;;;;;;4299532;33;20180;-81
2021/07/19 12:28:49;;;;;;;11.93;4.78;;;;;;;;;;4298891;33;20167;-82
2021/07/19 12:31:22;;;;;;;7.78;4.65;;;;;;;;;;4329118;33;20168;-81
2021/07/19 12:33:50;;;;;;;7.43;4.60;;;;;;;;;;4331359;33;20135;-81
2021/07/19 12:36:27;;;;;;;8.70;4.70;;;;;;;;;;4328923;33;20228;-80
2021/07/19 12:39:02;;;;;;;6.65;4.72;;;;;;;;;;4331415;33;20132;-80
2021/07/19 12:41:39;;;;;;;7.32;4.47;;;;;;;;;;4329025;33;20324;-80
2021/07/19 12:44:19;;;;;;;6.75;5.07;;;;;;;;;;4331335;33;20128;-80
2021/07/19 12:46:58;;;;;;;9.48;5.18;;;;;;;;;;4329271;33;20477;-82
2021/07/19 12:49:39;;;;;;;9.43;5.18;;;;;;;;;;4328784;33;20183;-81
2021/07/19 12:52:08;;;;;;;9.00;5.22;;;;;;;;;;4316915;33;20233;-81
2021/07/19 12:54:34;;;;;;;8.23;5.10;;;;;;;;;;4317089;32;20172;-81
2021/07/19 12:57:08;;;;;;;5.65;4.30;;;;;;;;;;4317157;32;20189;-82
2021/07/19 12:59:46;;;;;;;7.75;5.10;;;;;;;;;;4318987;32;20151;-82
2021/07/19 13:02:15;;;;;;;9.07;5.85;;;;;;;;;;4317014;33;20194;-82
2021/07/19 13:04:43;;;;;;;7.03;4.72;;;;;;;;;;4329910;33;20202;-80
2021/07/19 13:07:29;;;;;;;9.60;4.97;;;;;;;;;;4329949;33;20151;-81
2021/07/19 13:09:56;;;;;;;7.12;5.18;;;;;;;;;;4320340;32;20156;-81
2021/07/19 13:12:29;;;;;;;8.40;5.00;;;;;;;;;;4316711;32;20289;-81
2021/07/19 13:15:03;;;;;;;6.65;5.57;;;;;;;;;;4317038;32;20153;-81
2021/07/19 13:17:38;;;;;;;9.43;5.60;;;;;;;;;;4316865;32;20160;-81
2021/07/19 13:20:10;;;;;;;9.95;5.55;;;;;;;;;;4316898;32;20611;-81
2021/07/19 13:22:39;;;;;;;9.77;5.90;;;;;;;;;;4316991;33;20586;-81
2021/07/19 13:25:28;;;;;;;8.70;5.82;;;;;;;;;;4316439;32;20251;-82
2021/07/19 13:28:00;;;;;;;11.38;6.20;;;;;;;;;;4317160;32;20224;-82
2021/07/19 13:30:33;;;;;;;8.93;5.90;;;;;;;;;;4316411;33;20164;-81
2021/07/19 13:33:08;;;;;;;8.00;5.70;;;;;;;;;;4316667;32;20623;-81
2021/07/19 13:35:41;;;;;;;9.65;6.10;;;;;;;;;;4316763;32;20164;-81
2021/07/19 13:38:06;;;;;;;9.88;6.10;;;;;;;;;;4316407;33;20186;-80
2021/07/19 13:40:38;;;;;;;8.85;5.80;;;;;;;;;;4317160;32;20168;-80
2021/07/19 13:43:26;;;;;;;9.32;5.70;;;;;;;;;;4316840;32;20159;-80
2021/07/19 13:46:00;;;;;;;12.57;6.35;;;;;;;;;;4330033;32;20230;-80
2021/07/19 13:48:31;;;;;;;8.70;5.60;;;;;;;;;;4316972;33;20222;-83
2021/07/19 13:51:06;;;;;;;9.55;5.53;;;;;;;;;;4351730;32;20246;-81
2021/07/19 13:53:31;;;;;;;7.05;5.53;;;;;;;;;;4330734;33;20233;-81
2021/07/19 13:56:00;;;;;;;8.52;5.87;;;;;;;;;;4330977;33;20155;-80
2021/07/19 13:58:26;;;;;;;9.20;6.55;;;;;;;;;;4330714;32;20183;-81
2021/07/19 14:01:03;;;;;;;9.95;6.30;;;;;;;;;;4330599;33;20167;-81
2021/07/19 14:03:29;;;;;;;9.98;5.80;;;;;;;;;;4344937;33;20449;-80
2021/07/19 14:06:03;;;;;;;9.88;5.97;;;;;;;;;;4331045;33;20163;-81
2021/07/19 14:08:28;;;;;;;8.15;5.55;;;;;;;;;;4331083;33;20199;-81
2021/07/19 14:10:56;;;;;;;7.78;6.10;;;;;;;;;;4331021;33;20167;-81
2021/07/19 14:13:24;;;;;;;11.63;6.62;;;;;;;;;;4331013;33;20302;-81
2021/07/19 14:16:00;;;;;;;10.07;5.90;;;;;;;;;;4330819;33;20581;-81
2021/07/19 14:18:55;;;;;;;9.30;5.65;;;;;;;;;;4330742;32;20182;-80
2021/07/19 14:21:22;;;;;;;11.45;6.57;;;;;;;;;;4338171;33;20160;-83
2021/07/19 14:24:05;;;;;;;;;;;;;;;;;;;;;
2021/07/19 14:26:31;;;;;;;8.73;5.97;;;;;;;;;;4344077;33;20155;-81
2021/07/19 14:28:57;;;;;;;8.95;6.00;;;;;;;;;;4330712;33;20163;-80
2021/07/19 14:31:32;;;;;;;7.85;5.75;;;;;;;;;;4330361;32;20175;-81
2021/07/19 14:34:24;;;;;;;11.10;6.32;;;;;;;;;;4337481;33;20171;-80
2021/07/19 14:37:12;;;;;;;;;;;;;;;;;;;;;
2021/07/19 14:39:38;;;;;;;9.93;6.35;;;;;;;;;;4344522;33;20181;-81
2021/07/19 14:42:04;;;;;;;7.40;5.50;;;;;;;;;;4330217;33;20164;-81
2021/07/19 14:44:33;;;;;;;8.85;4.95;;;;;;;;;;4344534;33;20167;-81
2021/07/19 14:47:02;;;;;;;8.73;5.07;;;;;;;;;;4330635;33;20179;-80
2021/07/19 14:49:27;;;;;;;9.52;6.00;;;;;;;;;;4329914;33;20151;-81
2021/07/19 14:51:55;;;;;;;10.02;5.75;;;;;;;;;;4329660;33;20197;-81
2021/07/19 14:54:21;;;;;;;9.15;5.57;;;;;;;;;;4331023;32;20199;-80
2021/07/19 14:56:55;;;;;;;8.82;5.20;;;;;;;;;;4330015;32;20183;-81
2021/07/19 14:59:35;;;;;;;6.82;5.22;;;;;;;;;;4330497;33;20173;-79
2021/07/19 15:02:04;;;;;;;9.60;5.47;;;;;;;;;;4331051;33;20155;-81
2021/07/19 15:04:35;;;;;;;8.82;5.60;;;;;;;;;;4330404;33;20213;-81
2021/07/19 15:07:00;;;;;;;13.93;5.80;;;;;;;;;;4330110;33;20171;-77
2021/07/19 15:09:43;;;;;;;11.57;5.87;;;;;;;;;;4330259;32;20645;-81
2021/07/19 15:12:48;;;;;;;12.63;5.85;;;;;;;;;;4330365;33;20230;-79
2021/07/19 15:15:17;;;;;;;8.93;5.28;;;;;;;;;;4344450;32;20172;-81
2021/07/19 15:17:47;;;;;;;7.72;4.97;;;;;;;;;;4330012;33;20252;-81
2021/07/19 15:20:12;;;;;;;8.75;5.45;;;;;;;;;;4330129;33;20543;-83
2021/07/19 15:22:38;;;;;;;9.25;5.10;;;;;;;;;;4329577;33;20182;-77
2021/07/19 15:25:07;;;;;;;10.68;5.20;;;;;;;;;;4329489;33;20228;-80
2021/07/19 15:27:44;;;;;;;;;;;;;;;;;;;;;
2021/07/19 15:30:14;;;;;;;9.73;5.07;;;;;;;;;;4343992;33;20177;-81
2021/07/19 15:32:47;;;;;;;9.52;5.55;;;;;;;;;;4329581;33;20164;-81
2021/07/19 15:35:12;;;;;;;8.48;5.53;;;;;;;;;;4328860;33;20164;-80
2021/07/19 15:37:40;;;;;;;9.70;5.90;;;;;;;;;;4330418;33;20190;-81
2021/07/19 15:40:09;;;;;;;8.70;5.47;;;;;;;;;;4329505;32;20560;-81
2021/07/19 15:42:35;;;;;;;7.87;5.32;;;;;;;;;;4329557;33;20168;-81
2021/07/19 15:45:00;;;;;;;9.40;5.45;;;;;;;;;;4329779;33;20308;-81
2021/07/19 15:47:27;;;;;;;7.80;4.97;;;;;;;;;;4329355;33;20175;-81
2021/07/19 15:49:53;;;;;;;8.95;5.55;;;;;;;;;;4342997;33;20540;-81
2021/07/19 15:52:18;;;;;;;9.05;5.62;;;;;;;;;;4329260;32;20270;-81
2021/07/19 15:54:44;;;;;;;8.80;6.87;;;;;;;;;;4329998;33;20242;-81
2021/07/19 15:57:09;;;;;;;11.05;6.12;;;;;;;;;;4329442;33;20194;-82
2021/07/19 15:59:35;;;;;;;11.35;5.30;;;;;;;;;;4343088;33;20183;-82